createdAt,value
2023-06-03T00:00:16.249Z,61.8
2023-06-03T00:05:16.261Z,61.4
2023-06-03T00:10:19.308Z,61.1
2023-06-03T00:15:19.247Z,60.8
2023-06-03T00:20:16.318Z,60.2
2023-06-03T00:25:19.277Z,60.2
2023-06-03T00:30:16.299Z,60.3
2023-06-03T00:35:16.303Z,59.8
2023-06-03T00:40:16.308Z,59.7
2023-06-03T00:45:19.290Z,59.5
2023-06-03T00:50:16.429Z,59.3
2023-06-03T00:55:19.318Z,58.7
2023-06-03T01:00:16.346Z,57.9
2023-06-03T01:05:19.343Z,57.6
2023-06-03T01:10:19.291Z,56.6
2023-06-03T01:15:19.225Z,56.1
2023-06-03T01:20:19.300Z,56.1
2023-06-03T01:25:16.298Z,55.1
2023-06-03T01:30:19.299Z,55.1
2023-06-03T01:35:19.360Z,54.7
2023-06-03T01:40:19.294Z,54.4
2023-06-03T01:45:19.341Z,53.6
2023-06-03T01:50:19.271Z,52.6
2023-06-03T01:55:16.394Z,52.6
2023-06-03T02:00:19.274Z,52.4
2023-06-03T02:05:19.362Z,52.3
2023-06-03T02:10:19.291Z,51.2
2023-06-03T02:15:16.327Z,50.1
2023-06-03T02:20:19.463Z,49.7
2023-06-03T02:25:16.300Z,49.1
2023-06-03T02:30:19.336Z,48.2
2023-06-03T02:35:16.333Z,47.7
2023-06-03T02:40:19.336Z,47.7
2023-06-03T02:45:19.365Z,47.1
2023-06-03T02:50:16.376Z,47.0
2023-06-03T02:55:16.308Z,46.5
2023-06-03T03:00:19.322Z,46.0
2023-06-03T03:05:19.334Z,45.9
2023-06-03T03:10:19.336Z,45.4
2023-06-03T03:15:16.357Z,45.7
2023-06-03T03:20:19.405Z,45.5
2023-06-03T03:25:19.345Z,45.4
2023-06-03T03:30:19.295Z,45.3
2023-06-03T03:35:16.343Z,45.1
2023-06-03T03:40:19.324Z,45.4
2023-06-03T03:45:19.334Z,45.0
2023-06-03T03:50:19.392Z,44.6
2023-06-03T03:55:19.315Z,44.7
2023-06-03T04:00:18.564Z,44.8
2023-06-03T04:05:18.611Z,44.8
2023-06-03T04:10:18.578Z,44.8
2023-06-03T04:15:18.590Z,44.8
2023-06-03T04:20:18.578Z,45.2
2023-06-03T04:25:15.661Z,45.2
2023-06-03T04:30:15.673Z,45.7
2023-06-03T04:35:15.640Z,46.3
2023-06-03T04:40:18.663Z,46.5
2023-06-03T04:45:15.699Z,46.4
2023-06-03T04:50:15.707Z,46.7
2023-06-03T04:55:18.598Z,46.7
2023-06-03T05:00:15.741Z,47.3
2023-06-03T05:05:15.695Z,47.6
2023-06-03T05:10:18.655Z,47.5
2023-06-03T05:15:15.920Z,47.6
2023-06-03T05:20:18.653Z,48.0
2023-06-03T05:25:15.733Z,48.0
2023-06-03T05:30:18.589Z,48.0
2023-06-03T05:35:18.729Z,48.1
2023-06-03T05:40:18.592Z,48.1
2023-06-03T05:45:15.729Z,48.4
2023-06-03T05:50:15.657Z,48.6
2023-06-03T05:55:18.684Z,48.9
2023-06-03T06:00:18.574Z,48.9
2023-06-03T06:05:18.662Z,49.1
2023-06-03T06:10:15.708Z,49.2
2023-06-03T06:15:18.712Z,49.0
2023-06-03T06:20:18.602Z,49.3
2023-06-03T06:25:15.703Z,49.2
2023-06-03T06:30:18.665Z,49.1
2023-06-03T06:35:18.744Z,49.0
2023-06-03T06:40:18.626Z,49.0
2023-06-03T06:45:18.708Z,48.9
2023-06-03T06:50:18.744Z,48.9
2023-06-03T06:55:15.672Z,48.8
2023-06-03T07:00:18.653Z,48.8
2023-06-03T07:05:18.729Z,48.8
2023-06-03T07:10:18.673Z,49.0
2023-06-03T07:15:15.687Z,48.9
2023-06-03T07:20:18.694Z,49.3
2023-06-03T07:25:18.821Z,49.3
2023-06-03T07:30:15.767Z,49.3
2023-06-03T07:35:18.702Z,49.3
2023-06-03T07:40:18.672Z,49.3
2023-06-03T07:45:15.748Z,49.6
2023-06-03T07:50:15.653Z,49.4
2023-06-03T07:55:18.694Z,49.3
2023-06-03T08:00:15.812Z,49.7
2023-06-03T08:05:18.696Z,49.6
2023-06-03T08:10:18.756Z,49.6
2023-06-03T08:15:18.665Z,49.5
2023-06-03T08:20:18.670Z,49.4
2023-06-03T08:25:20.573Z,49.3
2023-06-03T08:30:18.672Z,49.3
2023-06-03T08:35:15.754Z,49.1
2023-06-03T08:40:15.722Z,49.0
2023-06-03T08:45:18.810Z,49.0
2023-06-03T08:50:18.723Z,48.9
2023-06-03T08:55:18.693Z,49.0
2023-06-03T09:00:15.821Z,48.9
2023-06-03T09:05:18.749Z,48.8
2023-06-03T09:10:17.092Z,48.8
2023-06-03T09:15:18.760Z,48.7
2023-06-03T09:20:15.801Z,48.7
2023-06-03T09:25:18.730Z,48.6
2023-06-03T09:30:15.779Z,48.5
2023-06-03T09:35:18.700Z,48.5
2023-06-03T09:40:18.857Z,48.4
2023-06-03T09:45:18.790Z,48.4
2023-06-03T09:50:18.810Z,48.1
2023-06-03T09:55:18.783Z,48.1
2023-06-03T10:00:15.827Z,48.1
2023-06-03T10:05:18.755Z,47.6
2023-06-03T10:10:18.785Z,47.4
2023-06-03T10:15:18.727Z,47.2
2023-06-03T10:20:15.842Z,47.1
2023-06-03T10:25:15.804Z,47.0
2023-06-03T10:30:15.857Z,47.0
2023-06-03T10:35:18.808Z,47.0
2023-06-03T10:40:18.746Z,46.6
2023-06-03T10:45:18.755Z,46.6
2023-06-03T10:50:15.957Z,46.6
2023-06-03T10:55:18.823Z,46.5
2023-06-03T11:00:18.798Z,46.5
2023-06-03T11:05:18.736Z,46.4
2023-06-03T11:10:15.883Z,46.4
2023-06-03T11:15:18.892Z,46.5
2023-06-03T11:20:15.841Z,46.5
2023-06-03T11:25:15.804Z,46.4
2023-06-03T11:30:15.936Z,46.7
2023-06-03T11:35:18.825Z,46.7
2023-06-03T11:40:18.849Z,46.5
2023-06-03T11:45:18.794Z,46.5
2023-06-03T11:50:18.765Z,46.5
2023-06-03T11:55:18.832Z,46.5
2023-06-03T12:00:18.827Z,46.5
2023-06-03T12:05:15.898Z,46.5
2023-06-03T12:10:18.813Z,46.3
2023-06-03T12:15:18.917Z,46.6
2023-06-03T12:20:18.811Z,46.5
2023-06-03T12:25:18.778Z,46.5
2023-06-03T12:30:15.930Z,46.5
2023-06-03T12:35:18.868Z,46.5
2023-06-03T12:40:15.915Z,46.3
2023-06-03T12:45:18.832Z,46.6
2023-06-03T12:50:15.904Z,46.5
2023-06-03T12:55:18.870Z,46.5
2023-06-03T13:00:18.813Z,46.5
2023-06-03T13:05:15.657Z,46.6
2023-06-03T13:10:15.663Z,46.6
2023-06-03T13:15:18.845Z,46.6
2023-06-03T19:45:18.999Z,44.8
2023-06-03T19:50:18.988Z,45.0
2023-06-03T19:55:19.052Z,44.9
2023-06-03T20:00:18.984Z,44.8
2023-06-03T20:05:16.165Z,44.8
2023-06-03T20:10:19.082Z,44.9
2023-06-03T20:15:19.052Z,45.0
2023-06-03T20:20:16.017Z,45.0
2023-06-03T20:25:19.001Z,45.1
2023-06-03T20:30:18.947Z,45.0
2023-06-03T20:35:19.034Z,44.7
2023-06-03T20:40:18.950Z,44.5
2023-06-03T20:45:18.966Z,44.3
2023-06-03T20:50:15.996Z,43.8
2023-06-03T20:55:19.007Z,43.7
2023-06-03T21:00:18.981Z,43.3
2023-06-03T21:05:18.938Z,43.2
2023-06-03T21:10:19.010Z,42.7
2023-06-03T21:15:16.027Z,42.6
2023-06-03T21:20:19.082Z,42.2
2023-06-03T21:25:18.993Z,42.2
2023-06-03T21:30:19.066Z,42.2
2023-06-03T21:35:19.126Z,42.2
2023-06-03T21:40:19.058Z,42.0
2023-06-03T21:45:19.049Z,41.9
2023-06-03T21:50:16.094Z,41.8
2023-06-03T21:55:19.016Z,41.7
2023-06-03T22:00:19.010Z,41.8
2023-06-03T22:05:18.980Z,41.9
2023-06-03T22:10:19.016Z,41.9
2023-06-03T22:15:18.993Z,42.0
2023-06-03T22:20:16.097Z,42.0
2023-06-03T22:25:19.105Z,41.8
2023-06-03T22:30:19.001Z,41.6
2023-06-03T22:35:18.980Z,41.5
2023-06-03T22:40:18.963Z,41.3
2023-06-03T22:45:18.982Z,41.2
2023-06-03T22:50:19.068Z,41.1
2023-06-03T22:55:18.993Z,41.0
2023-06-03T23:00:19.042Z,40.9
2023-06-03T23:05:18.983Z,40.9
2023-06-03T23:10:19.027Z,41.0
2023-06-03T23:15:16.106Z,41.0
2023-06-03T23:20:16.089Z,41.0
2023-06-03T23:25:19.133Z,41.0
2023-06-03T23:30:19.060Z,40.9
2023-06-03T23:35:19.068Z,41.0
2023-06-03T23:40:19.081Z,41.0
2023-06-03T23:45:19.077Z,41.0
2023-06-03T23:50:19.168Z,41.1
2023-06-03T23:55:16.110Z,41.4
